sensor_id;sensor_type;location;lat;lon;timestamp;temperature;humidity
21312;DHT22;18076;52.154;10.570;2023-02-11T00:00:50;4.00;99.90
21312;DHT22;18076;52.154;10.570;2023-02-11T00:03:33;4.00;99.90
21312;DHT22;18076;52.154;10.570;2023-02-11T00:05:59;4.10;99.90
21312;DHT22;18076;52.154;10.570;2023-02-11T00:08:25;4.10;99.90
21312;DHT22;18076;52.154;10.570;2023-02-11T00:10:52;4.20;99.90
21312;DHT22;18076;52.154;10.570;2023-02-11T00:13:21;4.20;99.90
21312;DHT22;18076;52.154;10.570;2023-02-11T00:15:46;4.20;99.90
21312;DHT22;18076;52.154;10.570;2023-02-11T00:18:12;4.20;99.90
21312;DHT22;18076;52.154;10.570;2023-02-11T00:20:38;4.20;99.90
21312;DHT22;18076;52.154;10.570;2023-02-11T00:23:03;4.30;99.90
21312;DHT22;18076;52.154;10.570;2023-02-11T00:25:29;4.30;99.90
21312;DHT22;18076;52.154;10.570;2023-02-11T00:27:54;4.30;99.90
21312;DHT22;18076;52.154;10.570;2023-02-11T00:30:20;4.30;99.90
21312;DHT22;18076;52.154;10.570;2023-02-11T00:32:46;4.30;99.90
21312;DHT22;18076;52.154;10.570;2023-02-11T00:35:11;4.40;99.90
21312;DHT22;18076;52.154;10.570;2023-02-11T00:37:37;4.40;99.90
21312;DHT22;18076;52.154;10.570;2023-02-11T00:40:03;4.30;99.90
21312;DHT22;18076;52.154;10.570;2023-02-11T00:42:29;4.30;99.90
21312;DHT22;18076;52.154;10.570;2023-02-11T00:44:54;4.30;99.90
21312;DHT22;18076;52.154;10.570;2023-02-11T00:47:20;4.40;99.90
21312;DHT22;18076;52.154;10.570;2023-02-11T00:49:46;4.40;99.90
21312;DHT22;18076;52.154;10.570;2023-02-11T00:52:11;4.40;99.90
21312;DHT22;18076;52.154;10.570;2023-02-11T00:54:37;4.50;99.90
21312;DHT22;18076;52.154;10.570;2023-02-11T00:57:02;4.60;99.90
21312;DHT22;18076;52.154;10.570;2023-02-11T00:59:28;4.50;99.90
21312;DHT22;18076;52.154;10.570;2023-02-11T01:01:53;4.60;99.90
21312;DHT22;18076;52.154;10.570;2023-02-11T01:04:19;4.60;99.90
21312;DHT22;18076;52.154;10.570;2023-02-11T01:06:44;4.60;99.90
21312;DHT22;18076;52.154;10.570;2023-02-11T01:09:10;4.60;99.90
21312;DHT22;18076;52.154;10.570;2023-02-11T01:11:35;4.60;99.90
21312;DHT22;18076;52.154;10.570;2023-02-11T01:14:01;4.70;99.90
21312;DHT22;18076;52.154;10.570;2023-02-11T01:16:26;4.70;99.90
21312;DHT22;18076;52.154;10.570;2023-02-11T01:18:52;4.70;99.90
21312;DHT22;18076;52.154;10.570;2023-02-11T01:21:17;4.80;99.90
21312;DHT22;18076;52.154;10.570;2023-02-11T01:23:43;4.90;99.90
21312;DHT22;18076;52.154;10.570;2023-02-11T01:26:09;4.90;99.90
21312;DHT22;18076;52.154;10.570;2023-02-11T01:28:34;4.90;99.90
21312;DHT22;18076;52.154;10.570;2023-02-11T01:31:00;4.90;99.90
21312;DHT22;18076;52.154;10.570;2023-02-11T01:33:26;5.00;99.90
21312;DHT22;18076;52.154;10.570;2023-02-11T01:35:52;5.00;99.90
21312;DHT22;18076;52.154;10.570;2023-02-11T01:38:19;5.00;99.90
21312;DHT22;18076;52.154;10.570;2023-02-11T01:43:44;5.00;99.90
21312;DHT22;18076;52.154;10.570;2023-02-11T01:46:16;4.90;99.90
21312;DHT22;18076;52.154;10.570;2023-02-11T01:48:45;4.90;99.90
21312;DHT22;18076;52.154;10.570;2023-02-11T01:51:12;4.90;99.90
21312;DHT22;18076;52.154;10.570;2023-02-11T01:53:38;5.00;99.90
21312;DHT22;18076;52.154;10.570;2023-02-11T01:56:24;5.00;99.90
21312;DHT22;18076;52.154;10.570;2023-02-11T01:59:26;5.00;99.90
21312;DHT22;18076;52.154;10.570;2023-02-11T02:01:55;5.00;99.90
21312;DHT22;18076;52.154;10.570;2023-02-11T02:04:21;5.00;99.90
21312;DHT22;18076;52.154;10.570;2023-02-11T02:06:52;5.00;99.90
21312;DHT22;18076;52.154;10.570;2023-02-11T02:09:24;5.10;99.90
21312;DHT22;18076;52.154;10.570;2023-02-11T02:11:51;5.00;99.90
21312;DHT22;18076;52.154;10.570;2023-02-11T02:14:17;5.00;99.90
21312;DHT22;18076;52.154;10.570;2023-02-11T02:16:42;5.00;99.90
21312;DHT22;18076;52.154;10.570;2023-02-11T02:37:36;5.00;99.90
21312;DHT22;18076;52.154;10.570;2023-02-11T02:40:10;5.00;99.90
21312;DHT22;18076;52.154;10.570;2023-02-11T02:42:37;5.00;99.90
21312;DHT22;18076;52.154;10.570;2023-02-11T02:45:05;5.00;99.90
21312;DHT22;18076;52.154;10.570;2023-02-11T02:47:31;5.10;99.90
21312;DHT22;18076;52.154;10.570;2023-02-11T02:49:57;5.10;99.90
21312;DHT22;18076;52.154;10.570;2023-02-11T03:02:32;5.20;99.90
21312;DHT22;18076;52.154;10.570;2023-02-11T03:10:22;5.20;99.90
21312;DHT22;18076;52.154;10.570;2023-02-11T03:12:49;5.20;99.90
21312;DHT22;18076;52.154;10.570;2023-02-11T03:15:16;5.20;99.90
21312;DHT22;18076;52.154;10.570;2023-02-11T03:17:44;5.20;99.90
21312;DHT22;18076;52.154;10.570;2023-02-11T03:20:12;5.30;99.90
21312;DHT22;18076;52.154;10.570;2023-02-11T03:22:40;5.30;99.90
21312;DHT22;18076;52.154;10.570;2023-02-11T03:25:07;5.30;99.90
21312;DHT22;18076;52.154;10.570;2023-02-11T03:27:52;5.30;99.90
21312;DHT22;18076;52.154;10.570;2023-02-11T03:32:51;5.30;99.90
21312;DHT22;18076;52.154;10.570;2023-02-11T03:38:07;5.40;99.90
21312;DHT22;18076;52.154;10.570;2023-02-11T03:40:40;5.50;99.90
21312;DHT22;18076;52.154;10.570;2023-02-11T03:45:41;5.60;99.90
21312;DHT22;18076;52.154;10.570;2023-02-11T03:48:11;5.60;99.90
21312;DHT22;18076;52.154;10.570;2023-02-11T03:50:38;5.50;99.90
21312;DHT22;18076;52.154;10.570;2023-02-11T03:53:05;5.50;99.90
21312;DHT22;18076;52.154;10.570;2023-02-11T03:55:34;5.60;99.90
21312;DHT22;18076;52.154;10.570;2023-02-11T03:58:01;5.60;99.90
21312;DHT22;18076;52.154;10.570;2023-02-11T04:00:30;5.60;99.90
21312;DHT22;18076;52.154;10.570;2023-02-11T04:02:56;5.60;99.90
21312;DHT22;18076;52.154;10.570;2023-02-11T04:05:21;5.70;99.90
21312;DHT22;18076;52.154;10.570;2023-02-11T04:07:47;5.70;99.90
21312;DHT22;18076;52.154;10.570;2023-02-11T04:10:12;5.80;99.90
21312;DHT22;18076;52.154;10.570;2023-02-11T04:12:38;5.80;99.90
21312;DHT22;18076;52.154;10.570;2023-02-11T04:15:04;5.80;99.90
21312;DHT22;18076;52.154;10.570;2023-02-11T04:17:29;5.80;99.90
21312;DHT22;18076;52.154;10.570;2023-02-11T04:19:55;5.80;99.90
21312;DHT22;18076;52.154;10.570;2023-02-11T04:22:20;5.90;99.90
21312;DHT22;18076;52.154;10.570;2023-02-11T04:24:46;5.80;99.90
21312;DHT22;18076;52.154;10.570;2023-02-11T04:27:11;5.80;99.90
21312;DHT22;18076;52.154;10.570;2023-02-11T04:29:37;5.80;99.90
21312;DHT22;18076;52.154;10.570;2023-02-11T04:32:05;5.90;99.90
21312;DHT22;18076;52.154;10.570;2023-02-11T04:34:31;5.90;99.90
21312;DHT22;18076;52.154;10.570;2023-02-11T04:36:57;5.80;99.90
21312;DHT22;18076;52.154;10.570;2023-02-11T04:39:23;5.80;99.90
21312;DHT22;18076;52.154;10.570;2023-02-11T04:41:48;5.90;99.90
21312;DHT22;18076;52.154;10.570;2023-02-11T04:44:14;5.90;99.90
21312;DHT22;18076;52.154;10.570;2023-02-11T04:46:39;5.80;99.90
21312;DHT22;18076;52.154;10.570;2023-02-11T04:49:05;5.80;99.90
21312;DHT22;18076;52.154;10.570;2023-02-11T04:51:31;5.80;99.90
21312;DHT22;18076;52.154;10.570;2023-02-11T04:53:56;5.80;99.90
21312;DHT22;18076;52.154;10.570;2023-02-11T04:56:22;5.80;99.90
21312;DHT22;18076;52.154;10.570;2023-02-11T04:58:47;5.70;99.90
21312;DHT22;18076;52.154;10.570;2023-02-11T05:01:14;5.70;99.90
21312;DHT22;18076;52.154;10.570;2023-02-11T05:03:40;5.70;99.90
21312;DHT22;18076;52.154;10.570;2023-02-11T05:06:05;5.70;99.90
21312;DHT22;18076;52.154;10.570;2023-02-11T05:08:31;5.70;99.90
21312;DHT22;18076;52.154;10.570;2023-02-11T05:10:57;5.60;99.90
21312;DHT22;18076;52.154;10.570;2023-02-11T05:13:23;5.60;99.90
21312;DHT22;18076;52.154;10.570;2023-02-11T05:15:48;5.60;99.90
21312;DHT22;18076;52.154;10.570;2023-02-11T05:18:14;5.50;99.90
21312;DHT22;18076;52.154;10.570;2023-02-11T05:20:42;5.50;99.90
21312;DHT22;18076;52.154;10.570;2023-02-11T05:23:08;5.50;99.90
21312;DHT22;18076;52.154;10.570;2023-02-11T05:25:34;5.50;99.90
21312;DHT22;18076;52.154;10.570;2023-02-11T05:28:00;5.50;99.90
21312;DHT22;18076;52.154;10.570;2023-02-11T05:30:26;5.50;99.90
21312;DHT22;18076;52.154;10.570;2023-02-11T05:32:51;5.50;99.90
21312;DHT22;18076;52.154;10.570;2023-02-11T05:35:17;5.50;99.90
21312;DHT22;18076;52.154;10.570;2023-02-11T05:37:42;5.40;99.90
21312;DHT22;18076;52.154;10.570;2023-02-11T05:40:08;5.50;99.90
21312;DHT22;18076;52.154;10.570;2023-02-11T05:42:34;5.40;99.90
21312;DHT22;18076;52.154;10.570;2023-02-11T05:44:59;5.40;99.90
21312;DHT22;18076;52.154;10.570;2023-02-11T05:47:25;5.40;99.90
21312;DHT22;18076;52.154;10.570;2023-02-11T05:49:50;5.40;99.90
21312;DHT22;18076;52.154;10.570;2023-02-11T05:52:16;5.40;99.90
21312;DHT22;18076;52.154;10.570;2023-02-11T05:54:42;5.40;99.90
21312;DHT22;18076;52.154;10.570;2023-02-11T05:57:07;5.40;99.90
21312;DHT22;18076;52.154;10.570;2023-02-11T05:59:33;5.40;99.90
21312;DHT22;18076;52.154;10.570;2023-02-11T06:01:58;5.40;99.90
21312;DHT22;18076;52.154;10.570;2023-02-11T06:04:24;5.40;99.90
21312;DHT22;18076;52.154;10.570;2023-02-11T06:06:50;5.40;99.90
21312;DHT22;18076;52.154;10.570;2023-02-11T06:09:15;5.50;99.90
21312;DHT22;18076;52.154;10.570;2023-02-11T06:11:41;5.50;99.90
21312;DHT22;18076;52.154;10.570;2023-02-11T06:14:06;5.50;99.90
21312;DHT22;18076;52.154;10.570;2023-02-11T06:16:32;5.50;99.90
21312;DHT22;18076;52.154;10.570;2023-02-11T06:18:57;5.50;99.90
21312;DHT22;18076;52.154;10.570;2023-02-11T06:21:23;5.60;99.90
21312;DHT22;18076;52.154;10.570;2023-02-11T06:23:48;5.60;99.90
21312;DHT22;18076;52.154;10.570;2023-02-11T06:26:16;5.60;99.90
21312;DHT22;18076;52.154;10.570;2023-02-11T06:28:42;5.60;99.90
21312;DHT22;18076;52.154;10.570;2023-02-11T06:31:07;5.60;99.90
21312;DHT22;18076;52.154;10.570;2023-02-11T06:33:33;5.60;99.90
21312;DHT22;18076;52.154;10.570;2023-02-11T06:35:59;5.60;99.90
21312;DHT22;18076;52.154;10.570;2023-02-11T06:38:25;5.70;99.90
21312;DHT22;18076;52.154;10.570;2023-02-11T06:40:50;5.70;99.90
21312;DHT22;18076;52.154;10.570;2023-02-11T06:43:16;5.70;99.90
21312;DHT22;18076;52.154;10.570;2023-02-11T06:45:41;5.60;99.90
21312;DHT22;18076;52.154;10.570;2023-02-11T06:48:07;5.70;99.90
21312;DHT22;18076;52.154;10.570;2023-02-11T06:50:33;5.70;99.90
21312;DHT22;18076;52.154;10.570;2023-02-11T06:52:59;5.70;99.90
21312;DHT22;18076;52.154;10.570;2023-02-11T06:55:25;5.70;99.90
21312;DHT22;18076;52.154;10.570;2023-02-11T06:57:50;5.70;99.90
21312;DHT22;18076;52.154;10.570;2023-02-11T07:00:16;5.70;99.90
21312;DHT22;18076;52.154;10.570;2023-02-11T07:02:41;5.70;99.90
21312;DHT22;18076;52.154;10.570;2023-02-11T07:05:07;5.70;99.90
21312;DHT22;18076;52.154;10.570;2023-02-11T07:07:33;5.70;99.90
21312;DHT22;18076;52.154;10.570;2023-02-11T07:09:59;5.70;99.90
21312;DHT22;18076;52.154;10.570;2023-02-11T07:12:24;5.70;99.90
21312;DHT22;18076;52.154;10.570;2023-02-11T07:14:50;5.70;99.90
21312;DHT22;18076;52.154;10.570;2023-02-11T07:17:15;5.70;99.90
21312;DHT22;18076;52.154;10.570;2023-02-11T07:19:41;5.80;99.90
21312;DHT22;18076;52.154;10.570;2023-02-11T07:22:06;5.80;99.90
21312;DHT22;18076;52.154;10.570;2023-02-11T07:24:32;5.80;99.90
21312;DHT22;18076;52.154;10.570;2023-02-11T07:26:57;5.80;99.90
21312;DHT22;18076;52.154;10.570;2023-02-11T07:29:23;5.80;99.90
21312;DHT22;18076;52.154;10.570;2023-02-11T07:31:48;5.80;99.90
21312;DHT22;18076;52.154;10.570;2023-02-11T07:34:14;5.90;99.90
21312;DHT22;18076;52.154;10.570;2023-02-11T07:36:40;5.90;99.90
21312;DHT22;18076;52.154;10.570;2023-02-11T07:39:07;5.90;99.90
21312;DHT22;18076;52.154;10.570;2023-02-11T07:41:33;5.90;99.90
21312;DHT22;18076;52.154;10.570;2023-02-11T07:44:01;5.90;99.90
21312;DHT22;18076;52.154;10.570;2023-02-11T07:46:26;5.90;99.90
21312;DHT22;18076;52.154;10.570;2023-02-11T07:48:52;5.90;99.90
21312;DHT22;18076;52.154;10.570;2023-02-11T07:51:21;5.90;99.90
21312;DHT22;18076;52.154;10.570;2023-02-11T07:53:47;5.80;99.90
21312;DHT22;18076;52.154;10.570;2023-02-11T07:56:14;5.80;99.90
21312;DHT22;18076;52.154;10.570;2023-02-11T07:58:39;5.80;99.90
21312;DHT22;18076;52.154;10.570;2023-02-11T08:01:07;5.90;99.90
21312;DHT22;18076;52.154;10.570;2023-02-11T08:03:33;5.90;99.90
21312;DHT22;18076;52.154;10.570;2023-02-11T08:06:06;5.90;99.90
21312;DHT22;18076;52.154;10.570;2023-02-11T08:08:32;5.90;99.90
21312;DHT22;18076;52.154;10.570;2023-02-11T08:10:57;5.90;99.90
21312;DHT22;18076;52.154;10.570;2023-02-11T08:13:23;6.00;99.90
21312;DHT22;18076;52.154;10.570;2023-02-11T08:15:51;6.00;99.90
21312;DHT22;18076;52.154;10.570;2023-02-11T08:18:19;6.00;99.90
21312;DHT22;18076;52.154;10.570;2023-02-11T08:20:45;6.00;99.90
21312;DHT22;18076;52.154;10.570;2023-02-11T08:23:10;6.10;99.90
21312;DHT22;18076;52.154;10.570;2023-02-11T08:25:36;6.10;99.90
21312;DHT22;18076;52.154;10.570;2023-02-11T08:28:01;6.20;99.90
21312;DHT22;18076;52.154;10.570;2023-02-11T08:30:27;6.20;99.90
21312;DHT22;18076;52.154;10.570;2023-02-11T08:32:53;6.20;99.90
21312;DHT22;18076;52.154;10.570;2023-02-11T08:35:18;6.20;99.90
21312;DHT22;18076;52.154;10.570;2023-02-11T08:37:44;6.20;99.90
21312;DHT22;18076;52.154;10.570;2023-02-11T08:40:09;6.30;99.90
21312;DHT22;18076;52.154;10.570;2023-02-11T08:42:35;6.30;99.90
21312;DHT22;18076;52.154;10.570;2023-02-11T08:45:00;6.40;99.90
21312;DHT22;18076;52.154;10.570;2023-02-11T08:47:26;6.40;99.90
21312;DHT22;18076;52.154;10.570;2023-02-11T08:49:51;6.40;99.90
21312;DHT22;18076;52.154;10.570;2023-02-11T08:52:17;6.50;99.90
21312;DHT22;18076;52.154;10.570;2023-02-11T08:54:42;6.50;99.90
21312;DHT22;18076;52.154;10.570;2023-02-11T08:57:08;6.50;99.90
21312;DHT22;18076;52.154;10.570;2023-02-11T08:59:33;6.50;99.90
21312;DHT22;18076;52.154;10.570;2023-02-11T09:01:59;6.50;99.90
21312;DHT22;18076;52.154;10.570;2023-02-11T09:04:24;6.50;99.90
21312;DHT22;18076;52.154;10.570;2023-02-11T09:06:50;6.50;99.90
21312;DHT22;18076;52.154;10.570;2023-02-11T09:09:15;6.60;99.90
21312;DHT22;18076;52.154;10.570;2023-02-11T09:11:41;6.50;99.90
21312;DHT22;18076;52.154;10.570;2023-02-11T09:14:10;6.60;99.90
21312;DHT22;18076;52.154;10.570;2023-02-11T09:16:39;6.60;99.90
21312;DHT22;18076;52.154;10.570;2023-02-11T09:19:04;6.50;99.90
21312;DHT22;18076;52.154;10.570;2023-02-11T09:21:30;6.50;99.90
21312;DHT22;18076;52.154;10.570;2023-02-11T09:23:56;6.60;99.90
21312;DHT22;18076;52.154;10.570;2023-02-11T09:26:22;6.60;99.90
21312;DHT22;18076;52.154;10.570;2023-02-11T09:28:48;6.60;99.90
21312;DHT22;18076;52.154;10.570;2023-02-11T09:31:15;6.60;99.90
21312;DHT22;18076;52.154;10.570;2023-02-11T09:33:41;6.70;99.90
21312;DHT22;18076;52.154;10.570;2023-02-11T09:36:13;6.70;99.90
21312;DHT22;18076;52.154;10.570;2023-02-11T09:38:38;6.60;99.90
21312;DHT22;18076;52.154;10.570;2023-02-11T09:41:04;6.70;99.90
21312;DHT22;18076;52.154;10.570;2023-02-11T09:43:36;6.70;99.90
21312;DHT22;18076;52.154;10.570;2023-02-11T09:46:03;6.70;99.90
21312;DHT22;18076;52.154;10.570;2023-02-11T09:48:29;6.70;99.90
21312;DHT22;18076;52.154;10.570;2023-02-11T09:50:59;6.70;99.90
21312;DHT22;18076;52.154;10.570;2023-02-11T09:53:27;6.80;99.90
21312;DHT22;18076;52.154;10.570;2023-02-11T09:55:54;6.80;99.90
21312;DHT22;18076;52.154;10.570;2023-02-11T10:00:56;6.80;99.90
21312;DHT22;18076;52.154;10.570;2023-02-11T10:11:08;6.90;99.90
21312;DHT22;18076;52.154;10.570;2023-02-11T10:13:44;7.00;99.90
21312;DHT22;18076;52.154;10.570;2023-02-11T10:24:11;7.10;99.90
21312;DHT22;18076;52.154;10.570;2023-02-11T10:26:37;7.10;99.90
21312;DHT22;18076;52.154;10.570;2023-02-11T10:29:06;7.10;99.90
21312;DHT22;18076;52.154;10.570;2023-02-11T10:31:39;7.10;99.90
21312;DHT22;18076;52.154;10.570;2023-02-11T10:34:09;7.10;99.90
21312;DHT22;18076;52.154;10.570;2023-02-11T10:36:36;7.20;99.90
21312;DHT22;18076;52.154;10.570;2023-02-11T10:39:10;7.20;99.90
21312;DHT22;18076;52.154;10.570;2023-02-11T10:41:37;7.20;99.90
21312;DHT22;18076;52.154;10.570;2023-02-11T10:44:05;7.30;99.90
21312;DHT22;18076;52.154;10.570;2023-02-11T10:46:32;7.30;99.90
21312;DHT22;18076;52.154;10.570;2023-02-11T10:48:59;7.30;99.90
21312;DHT22;18076;52.154;10.570;2023-02-11T10:51:25;7.30;99.90
21312;DHT22;18076;52.154;10.570;2023-02-11T10:56:24;7.40;99.90
21312;DHT22;18076;52.154;10.570;2023-02-11T10:58:58;7.40;99.90
21312;DHT22;18076;52.154;10.570;2023-02-11T11:01:37;7.50;99.90
21312;DHT22;18076;52.154;10.570;2023-02-11T11:04:03;7.50;99.90
21312;DHT22;18076;52.154;10.570;2023-02-11T11:06:32;7.50;99.90
21312;DHT22;18076;52.154;10.570;2023-02-11T11:08:58;7.50;99.90
21312;DHT22;18076;52.154;10.570;2023-02-11T11:11:24;7.50;99.90
21312;DHT22;18076;52.154;10.570;2023-02-11T11:13:58;7.50;99.90
21312;DHT22;18076;52.154;10.570;2023-02-11T11:18:51;7.60;99.90
21312;DHT22;18076;52.154;10.570;2023-02-11T11:21:30;7.60;99.90
21312;DHT22;18076;52.154;10.570;2023-02-11T11:23:58;7.60;99.90
21312;DHT22;18076;52.154;10.570;2023-02-11T11:26:25;7.60;99.90
21312;DHT22;18076;52.154;10.570;2023-02-11T11:28:59;7.60;99.90
21312;DHT22;18076;52.154;10.570;2023-02-11T11:31:30;7.60;99.90
21312;DHT22;18076;52.154;10.570;2023-02-11T11:33:57;7.70;99.90
21312;DHT22;18076;52.154;10.570;2023-02-11T11:36:29;7.70;99.90
21312;DHT22;18076;52.154;10.570;2023-02-11T11:38:57;7.70;99.90
21312;DHT22;18076;52.154;10.570;2023-02-11T11:43:53;7.70;99.90
21312;DHT22;18076;52.154;10.570;2023-02-11T11:46:22;7.70;99.90
21312;DHT22;18076;52.154;10.570;2023-02-11T11:48:48;7.70;99.90
21312;DHT22;18076;52.154;10.570;2023-02-11T11:51:14;7.70;99.90
21312;DHT22;18076;52.154;10.570;2023-02-11T11:54:22;7.70;99.90
21312;DHT22;18076;52.154;10.570;2023-02-11T11:56:30;7.70;99.90
21312;DHT22;18076;52.154;10.570;2023-02-11T11:58:58;7.80;99.90
21312;DHT22;18076;52.154;10.570;2023-02-11T12:06:37;7.80;99.90
21312;DHT22;18076;52.154;10.570;2023-02-11T12:09:14;7.80;99.90
21312;DHT22;18076;52.154;10.570;2023-02-11T12:11:54;7.80;99.90
21312;DHT22;18076;52.154;10.570;2023-02-11T12:19:44;7.80;99.90
21312;DHT22;18076;52.154;10.570;2023-02-11T12:27:43;7.80;99.90
21312;DHT22;18076;52.154;10.570;2023-02-11T12:50:37;7.80;99.90
21312;DHT22;18076;52.154;10.570;2023-02-11T12:55:33;7.80;99.90
21312;DHT22;18076;52.154;10.570;2023-02-11T12:58:02;7.80;99.90
21312;DHT22;18076;52.154;10.570;2023-02-11T13:03:04;7.80;99.90
21312;DHT22;18076;52.154;10.570;2023-02-11T13:08:13;7.80;99.90
21312;DHT22;18076;52.154;10.570;2023-02-11T13:10:40;7.80;99.90
21312;DHT22;18076;52.154;10.570;2023-02-11T13:15:59;7.80;99.90
21312;DHT22;18076;52.154;10.570;2023-02-11T13:18:39;7.80;99.90
21312;DHT22;18076;52.154;10.570;2023-02-11T13:26:39;7.80;99.90
21312;DHT22;18076;52.154;10.570;2023-02-11T13:31:31;7.80;99.90
21312;DHT22;18076;52.154;10.570;2023-02-11T13:33:56;7.80;99.90
21312;DHT22;18076;52.154;10.570;2023-02-11T13:36:23;7.80;99.90
21312;DHT22;18076;52.154;10.570;2023-02-11T13:38:53;7.80;99.90
21312;DHT22;18076;52.154;10.570;2023-02-11T13:41:23;7.80;99.90
21312;DHT22;18076;52.154;10.570;2023-02-11T13:46:22;7.90;99.90
21312;DHT22;18076;52.154;10.570;2023-02-11T13:48:50;7.90;99.90
21312;DHT22;18076;52.154;10.570;2023-02-11T13:51:18;8.00;99.90
21312;DHT22;18076;52.154;10.570;2023-02-11T13:53:57;8.00;99.90
21312;DHT22;18076;52.154;10.570;2023-02-11T13:56:28;8.00;99.90
21312;DHT22;18076;52.154;10.570;2023-02-11T13:58:54;8.10;99.90
21312;DHT22;18076;52.154;10.570;2023-02-11T14:01:37;8.10;99.90
21312;DHT22;18076;52.154;10.570;2023-02-11T14:04:23;8.10;99.90
21312;DHT22;18076;52.154;10.570;2023-02-11T14:07:23;8.00;99.90
21312;DHT22;18076;52.154;10.570;2023-02-11T14:18:35;7.90;99.90
21312;DHT22;18076;52.154;10.570;2023-02-11T14:21:08;8.00;99.90
21312;DHT22;18076;52.154;10.570;2023-02-11T14:23:36;7.90;99.90
21312;DHT22;18076;52.154;10.570;2023-02-11T14:26:24;8.00;99.90
21312;DHT22;18076;52.154;10.570;2023-02-11T14:28:58;8.00;99.90
21312;DHT22;18076;52.154;10.570;2023-02-11T14:32:01;8.00;99.90
21312;DHT22;18076;52.154;10.570;2023-02-11T14:42:00;8.00;99.90
21312;DHT22;18076;52.154;10.570;2023-02-11T14:44:27;8.00;99.90
21312;DHT22;18076;52.154;10.570;2023-02-11T14:46:53;8.00;99.90
21312;DHT22;18076;52.154;10.570;2023-02-11T14:49:22;8.00;99.90
21312;DHT22;18076;52.154;10.570;2023-02-11T14:51:49;8.10;99.90
21312;DHT22;18076;52.154;10.570;2023-02-11T14:54:19;8.00;99.90
21312;DHT22;18076;52.154;10.570;2023-02-11T14:57:05;8.00;99.90
21312;DHT22;18076;52.154;10.570;2023-02-11T14:59:31;8.10;99.90
21312;DHT22;18076;52.154;10.570;2023-02-11T15:01:57;8.00;99.90
21312;DHT22;18076;52.154;10.570;2023-02-11T15:06:48;8.00;99.90
21312;DHT22;18076;52.154;10.570;2023-02-11T15:11:43;8.00;99.90
21312;DHT22;18076;52.154;10.570;2023-02-11T15:16:55;8.00;99.90
21312;DHT22;18076;52.154;10.570;2023-02-11T15:19:28;8.00;99.90
21312;DHT22;18076;52.154;10.570;2023-02-11T15:21:57;8.10;99.90
21312;DHT22;18076;52.154;10.570;2023-02-11T15:24:30;8.10;99.90
21312;DHT22;18076;52.154;10.570;2023-02-11T15:29:25;8.10;99.90
21312;DHT22;18076;52.154;10.570;2023-02-11T15:32:02;8.10;99.90
21312;DHT22;18076;52.154;10.570;2023-02-11T15:34:28;8.10;99.90
21312;DHT22;18076;52.154;10.570;2023-02-11T15:36:53;8.10;99.90
21312;DHT22;18076;52.154;10.570;2023-02-11T15:39:29;8.10;99.90
21312;DHT22;18076;52.154;10.570;2023-02-11T15:41:55;8.10;99.90
21312;DHT22;18076;52.154;10.570;2023-02-11T15:44:31;8.10;99.90
21312;DHT22;18076;52.154;10.570;2023-02-11T15:46:57;8.10;99.90
21312;DHT22;18076;52.154;10.570;2023-02-11T15:49:23;8.10;99.90
21312;DHT22;18076;52.154;10.570;2023-02-11T15:51:49;8.10;99.90
21312;DHT22;18076;52.154;10.570;2023-02-11T15:54:15;8.10;99.90
21312;DHT22;18076;52.154;10.570;2023-02-11T15:56:43;8.10;99.90
21312;DHT22;18076;52.154;10.570;2023-02-11T15:59:26;8.10;99.90
21312;DHT22;18076;52.154;10.570;2023-02-11T16:01:52;8.10;99.90
21312;DHT22;18076;52.154;10.570;2023-02-11T16:04:25;8.10;99.90
21312;DHT22;18076;52.154;10.570;2023-02-11T16:06:52;8.10;99.90
21312;DHT22;18076;52.154;10.570;2023-02-11T16:14:26;8.10;99.90
21312;DHT22;18076;52.154;10.570;2023-02-11T16:16:57;8.10;99.90
21312;DHT22;18076;52.154;10.570;2023-02-11T16:19:23;8.10;99.90
21312;DHT22;18076;52.154;10.570;2023-02-11T16:21:49;8.10;99.90
21312;DHT22;18076;52.154;10.570;2023-02-11T16:24:19;8.10;99.90
21312;DHT22;18076;52.154;10.570;2023-02-11T16:26:52;8.10;99.90
21312;DHT22;18076;52.154;10.570;2023-02-11T16:29:27;8.00;99.90
21312;DHT22;18076;52.154;10.570;2023-02-11T16:32:03;8.00;99.90
21312;DHT22;18076;52.154;10.570;2023-02-11T16:34:29;8.00;99.90
21312;DHT22;18076;52.154;10.570;2023-02-11T16:36:54;8.00;99.90
21312;DHT22;18076;52.154;10.570;2023-02-11T16:39:20;8.00;99.90
21312;DHT22;18076;52.154;10.570;2023-02-11T16:41:46;8.00;99.90
21312;DHT22;18076;52.154;10.570;2023-02-11T16:44:12;8.00;99.90
21312;DHT22;18076;52.154;10.570;2023-02-11T16:46:38;8.10;99.90
21312;DHT22;18076;52.154;10.570;2023-02-11T16:49:07;8.10;99.90
21312;DHT22;18076;52.154;10.570;2023-02-11T16:51:33;8.10;99.90
21312;DHT22;18076;52.154;10.570;2023-02-11T16:53:59;8.00;99.90
21312;DHT22;18076;52.154;10.570;2023-02-11T16:56:25;8.10;99.90
21312;DHT22;18076;52.154;10.570;2023-02-11T16:58:51;8.00;99.90
21312;DHT22;18076;52.154;10.570;2023-02-11T17:01:16;8.10;99.90
21312;DHT22;18076;52.154;10.570;2023-02-11T17:03:42;8.10;99.90
21312;DHT22;18076;52.154;10.570;2023-02-11T17:06:08;8.10;99.90
21312;DHT22;18076;52.154;10.570;2023-02-11T17:08:34;8.10;99.90
21312;DHT22;18076;52.154;10.570;2023-02-11T17:11:00;8.10;99.90
21312;DHT22;18076;52.154;10.570;2023-02-11T17:13:26;8.10;99.90
21312;DHT22;18076;52.154;10.570;2023-02-11T17:15:51;8.10;99.90
21312;DHT22;18076;52.154;10.570;2023-02-11T17:18:17;8.10;99.90
21312;DHT22;18076;52.154;10.570;2023-02-11T17:20:42;8.00;99.90
21312;DHT22;18076;52.154;10.570;2023-02-11T17:23:08;8.00;99.90
21312;DHT22;18076;52.154;10.570;2023-02-11T17:25:34;8.00;99.90
21312;DHT22;18076;52.154;10.570;2023-02-11T17:28:02;8.00;99.90
21312;DHT22;18076;52.154;10.570;2023-02-11T17:30:28;8.00;99.90
21312;DHT22;18076;52.154;10.570;2023-02-11T17:32:53;8.00;99.90
21312;DHT22;18076;52.154;10.570;2023-02-11T17:35:19;8.00;99.90
21312;DHT22;18076;52.154;10.570;2023-02-11T17:37:44;8.00;99.90
21312;DHT22;18076;52.154;10.570;2023-02-11T17:40:10;8.00;99.90
21312;DHT22;18076;52.154;10.570;2023-02-11T17:42:36;8.00;99.90
21312;DHT22;18076;52.154;10.570;2023-02-11T17:45:02;8.00;99.90
21312;DHT22;18076;52.154;10.570;2023-02-11T17:47:28;8.00;99.90
21312;DHT22;18076;52.154;10.570;2023-02-11T17:49:53;8.00;99.90
21312;DHT22;18076;52.154;10.570;2023-02-11T17:52:21;7.90;99.90
21312;DHT22;18076;52.154;10.570;2023-02-11T17:55:04;7.90;99.90
21312;DHT22;18076;52.154;10.570;2023-02-11T17:57:30;7.90;99.90
21312;DHT22;18076;52.154;10.570;2023-02-11T17:59:56;7.90;99.90
21312;DHT22;18076;52.154;10.570;2023-02-11T18:02:22;7.90;99.90
21312;DHT22;18076;52.154;10.570;2023-02-11T18:04:47;7.90;99.90
21312;DHT22;18076;52.154;10.570;2023-02-11T18:07:13;8.00;99.90
21312;DHT22;18076;52.154;10.570;2023-02-11T18:09:39;8.00;99.90
21312;DHT22;18076;52.154;10.570;2023-02-11T18:12:05;8.00;99.90